sensor_id;sensor_type;location;lat;lon;timestamp;P1;durP1;ratioP1;P2;durP2;ratioP2
36663;SDS011;53333;51.976;20.144;2023-09-30T00:02:12;16.75;;;8.85;;
36663;SDS011;53333;51.976;20.144;2023-09-30T00:04:45;16.42;;;9.95;;
36663;SDS011;53333;51.976;20.144;2023-09-30T00:07:18;17.45;;;9.13;;
36663;SDS011;53333;51.976;20.144;2023-09-30T00:09:51;16.00;;;8.63;;
36663;SDS011;53333;51.976;20.144;2023-09-30T00:12:24;17.35;;;9.07;;
36663;SDS011;53333;51.976;20.144;2023-09-30T00:14:58;14.43;;;8.63;;
36663;SDS011;53333;51.976;20.144;2023-09-30T00:17:32;20.88;;;9.45;;
36663;SDS011;53333;51.976;20.144;2023-09-30T00:20:06;13.40;;;9.05;;
36663;SDS011;53333;51.976;20.144;2023-09-30T00:22:39;17.02;;;9.20;;
36663;SDS011;53333;51.976;20.144;2023-09-30T00:25:12;17.73;;;10.18;;
36663;SDS011;53333;51.976;20.144;2023-09-30T00:27:45;20.10;;;9.45;;
36663;SDS011;53333;51.976;20.144;2023-09-30T00:30:18;14.77;;;9.00;;
36663;SDS011;53333;51.976;20.144;2023-09-30T00:32:54;14.40;;;8.95;;
36663;SDS011;53333;51.976;20.144;2023-09-30T00:35:27;20.80;;;9.30;;
36663;SDS011;53333;51.976;20.144;2023-09-30T00:38:01;13.90;;;8.65;;
36663;SDS011;53333;51.976;20.144;2023-09-30T00:40:34;21.45;;;9.23;;
36663;SDS011;53333;51.976;20.144;2023-09-30T00:43:08;14.20;;;8.80;;
36663;SDS011;53333;51.976;20.144;2023-09-30T00:45:51;15.50;;;9.25;;
36663;SDS011;53333;51.976;20.144;2023-09-30T00:48:31;17.60;;;9.38;;
36663;SDS011;53333;51.976;20.144;2023-09-30T00:51:05;15.15;;;8.90;;
36663;SDS011;53333;51.976;20.144;2023-09-30T00:53:38;19.08;;;8.80;;
36663;SDS011;53333;51.976;20.144;2023-09-30T00:58:45;13.48;;;8.80;;
36663;SDS011;53333;51.976;20.144;2023-09-30T01:01:22;18.77;;;9.63;;
36663;SDS011;53333;51.976;20.144;2023-09-30T01:06:31;15.40;;;8.38;;
36663;SDS011;53333;51.976;20.144;2023-09-30T01:11:37;14.55;;;8.32;;
36663;SDS011;53333;51.976;20.144;2023-09-30T01:14:25;11.73;;;8.77;;
36663;SDS011;53333;51.976;20.144;2023-09-30T01:16:59;15.38;;;8.82;;
36663;SDS011;53333;51.976;20.144;2023-09-30T01:19:33;17.90;;;8.98;;
36663;SDS011;53333;51.976;20.144;2023-09-30T01:22:08;13.20;;;8.18;;
36663;SDS011;53333;51.976;20.144;2023-09-30T01:24:42;18.25;;;8.55;;
36663;SDS011;53333;51.976;20.144;2023-09-30T01:27:16;18.50;;;8.38;;
36663;SDS011;53333;51.976;20.144;2023-09-30T01:29:51;18.40;;;8.02;;
36663;SDS011;53333;51.976;20.144;2023-09-30T01:32:24;17.50;;;8.45;;
36663;SDS011;53333;51.976;20.144;2023-09-30T01:34:57;15.30;;;8.35;;
36663;SDS011;53333;51.976;20.144;2023-09-30T01:37:32;16.83;;;8.65;;
36663;SDS011;53333;51.976;20.144;2023-09-30T01:40:05;15.82;;;8.55;;
36663;SDS011;53333;51.976;20.144;2023-09-30T01:42:42;16.00;;;9.20;;
36663;SDS011;53333;51.976;20.144;2023-09-30T01:45:15;14.20;;;7.88;;
36663;SDS011;53333;51.976;20.144;2023-09-30T01:47:48;13.15;;;8.50;;
36663;SDS011;53333;51.976;20.144;2023-09-30T01:50:21;15.13;;;8.40;;
36663;SDS011;53333;51.976;20.144;2023-09-30T01:52:55;18.88;;;8.40;;
36663;SDS011;53333;51.976;20.144;2023-09-30T01:55:28;17.02;;;9.15;;
36663;SDS011;53333;51.976;20.144;2023-09-30T01:58:01;17.60;;;8.60;;
36663;SDS011;53333;51.976;20.144;2023-09-30T02:00:35;15.35;;;9.18;;
36663;SDS011;53333;51.976;20.144;2023-09-30T02:03:08;13.95;;;8.40;;
36663;SDS011;53333;51.976;20.144;2023-09-30T02:05:41;15.35;;;9.00;;
36663;SDS011;53333;51.976;20.144;2023-09-30T02:08:15;18.70;;;8.88;;
36663;SDS011;53333;51.976;20.144;2023-09-30T02:10:49;12.52;;;8.98;;
36663;SDS011;53333;51.976;20.144;2023-09-30T02:13:23;16.33;;;9.05;;
36663;SDS011;53333;51.976;20.144;2023-09-30T02:15:56;15.18;;;8.60;;
36663;SDS011;53333;51.976;20.144;2023-09-30T02:18:29;17.13;;;9.25;;
36663;SDS011;53333;51.976;20.144;2023-09-30T02:21:04;13.52;;;8.45;;
36663;SDS011;53333;51.976;20.144;2023-09-30T02:23:38;13.57;;;8.65;;
36663;SDS011;53333;51.976;20.144;2023-09-30T02:26:11;17.08;;;8.82;;
36663;SDS011;53333;51.976;20.144;2023-09-30T02:28:44;13.07;;;8.98;;
36663;SDS011;53333;51.976;20.144;2023-09-30T02:31:17;12.13;;;8.70;;
36663;SDS011;53333;51.976;20.144;2023-09-30T02:33:50;12.80;;;9.05;;
36663;SDS011;53333;51.976;20.144;2023-09-30T02:36:23;14.80;;;8.80;;
36663;SDS011;53333;51.976;20.144;2023-09-30T02:38:58;14.15;;;8.68;;
36663;SDS011;53333;51.976;20.144;2023-09-30T02:41:32;18.25;;;9.55;;
36663;SDS011;53333;51.976;20.144;2023-09-30T02:44:05;15.40;;;8.63;;
36663;SDS011;53333;51.976;20.144;2023-09-30T02:46:38;15.95;;;8.55;;
36663;SDS011;53333;51.976;20.144;2023-09-30T02:49:11;15.30;;;9.07;;
36663;SDS011;53333;51.976;20.144;2023-09-30T02:51:47;15.30;;;9.32;;
36663;SDS011;53333;51.976;20.144;2023-09-30T02:54:24;12.57;;;8.63;;
36663;SDS011;53333;51.976;20.144;2023-09-30T02:56:58;14.23;;;9.32;;
36663;SDS011;53333;51.976;20.144;2023-09-30T02:59:31;17.25;;;9.40;;
36663;SDS011;53333;51.976;20.144;2023-09-30T03:02:04;14.15;;;9.52;;
36663;SDS011;53333;51.976;20.144;2023-09-30T03:04:38;12.82;;;8.27;;
36663;SDS011;53333;51.976;20.144;2023-09-30T03:07:11;14.25;;;9.75;;
36663;SDS011;53333;51.976;20.144;2023-09-30T03:09:46;13.88;;;9.13;;
36663;SDS011;53333;51.976;20.144;2023-09-30T03:12:19;14.82;;;8.95;;
36663;SDS011;53333;51.976;20.144;2023-09-30T03:14:52;14.45;;;9.20;;
36663;SDS011;53333;51.976;20.144;2023-09-30T03:17:26;12.38;;;8.13;;
36663;SDS011;53333;51.976;20.144;2023-09-30T03:20:01;11.95;;;9.60;;
36663;SDS011;53333;51.976;20.144;2023-09-30T03:22:40;15.80;;;9.38;;
36663;SDS011;53333;51.976;20.144;2023-09-30T03:25:16;13.15;;;8.88;;
36663;SDS011;53333;51.976;20.144;2023-09-30T03:27:50;14.13;;;9.43;;
36663;SDS011;53333;51.976;20.144;2023-09-30T03:30:23;14.18;;;8.82;;
36663;SDS011;53333;51.976;20.144;2023-09-30T03:32:56;15.57;;;9.18;;
36663;SDS011;53333;51.976;20.144;2023-09-30T03:35:29;12.18;;;8.80;;
36663;SDS011;53333;51.976;20.144;2023-09-30T03:38:03;16.92;;;9.05;;
36663;SDS011;53333;51.976;20.144;2023-09-30T03:40:39;15.48;;;8.90;;
36663;SDS011;53333;51.976;20.144;2023-09-30T03:43:20;14.13;;;9.17;;
36663;SDS011;53333;51.976;20.144;2023-09-30T03:45:54;16.27;;;9.43;;
36663;SDS011;53333;51.976;20.144;2023-09-30T03:48:28;16.52;;;9.57;;
36663;SDS011;53333;51.976;20.144;2023-09-30T03:51:07;16.75;;;10.07;;
36663;SDS011;53333;51.976;20.144;2023-09-30T03:53:41;15.48;;;9.95;;
36663;SDS011;53333;51.976;20.144;2023-09-30T03:56:15;18.92;;;9.82;;
36663;SDS011;53333;51.976;20.144;2023-09-30T03:58:49;13.43;;;9.95;;
36663;SDS011;53333;51.976;20.144;2023-09-30T04:01:25;18.15;;;10.18;;
36663;SDS011;53333;51.976;20.144;2023-09-30T04:03:58;19.60;;;8.98;;
36663;SDS011;53333;51.976;20.144;2023-09-30T04:06:32;14.95;;;9.48;;
36663;SDS011;53333;51.976;20.144;2023-09-30T04:09:05;13.45;;;9.70;;
36663;SDS011;53333;51.976;20.144;2023-09-30T04:11:43;15.20;;;10.10;;
36663;SDS011;53333;51.976;20.144;2023-09-30T04:14:17;16.25;;;8.95;;
36663;SDS011;53333;51.976;20.144;2023-09-30T04:19:25;18.17;;;9.40;;
36663;SDS011;53333;51.976;20.144;2023-09-30T04:22:01;11.57;;;8.75;;
36663;SDS011;53333;51.976;20.144;2023-09-30T04:24:35;11.18;;;9.35;;
36663;SDS011;53333;51.976;20.144;2023-09-30T04:27:09;11.93;;;9.27;;
36663;SDS011;53333;51.976;20.144;2023-09-30T04:29:42;15.10;;;10.05;;
36663;SDS011;53333;51.976;20.144;2023-09-30T04:32:15;15.07;;;10.65;;
36663;SDS011;53333;51.976;20.144;2023-09-30T04:34:49;13.88;;;9.38;;
36663;SDS011;53333;51.976;20.144;2023-09-30T04:37:22;12.70;;;8.88;;
36663;SDS011;53333;51.976;20.144;2023-09-30T04:39:55;15.43;;;9.88;;
36663;SDS011;53333;51.976;20.144;2023-09-30T04:42:30;14.20;;;10.05;;
36663;SDS011;53333;51.976;20.144;2023-09-30T04:45:03;13.98;;;9.80;;
36663;SDS011;53333;51.976;20.144;2023-09-30T04:47:38;15.13;;;9.13;;
36663;SDS011;53333;51.976;20.144;2023-09-30T04:50:11;13.38;;;9.20;;
36663;SDS011;53333;51.976;20.144;2023-09-30T04:52:46;14.43;;;10.88;;
36663;SDS011;53333;51.976;20.144;2023-09-30T04:55:18;17.17;;;10.85;;
36663;SDS011;53333;51.976;20.144;2023-09-30T04:57:53;15.55;;;10.45;;
36663;SDS011;53333;51.976;20.144;2023-09-30T05:00:26;14.95;;;10.60;;
36663;SDS011;53333;51.976;20.144;2023-09-30T05:03:00;13.48;;;10.60;;
36663;SDS011;53333;51.976;20.144;2023-09-30T05:05:33;16.08;;;9.77;;
36663;SDS011;53333;51.976;20.144;2023-09-30T05:08:06;15.50;;;10.10;;
36663;SDS011;53333;51.976;20.144;2023-09-30T05:10:42;14.52;;;10.38;;
36663;SDS011;53333;51.976;20.144;2023-09-30T05:13:16;14.23;;;10.52;;
36663;SDS011;53333;51.976;20.144;2023-09-30T05:15:49;17.45;;;10.70;;
36663;SDS011;53333;51.976;20.144;2023-09-30T05:20:56;16.00;;;11.38;;
36663;SDS011;53333;51.976;20.144;2023-09-30T05:23:29;17.08;;;10.70;;
36663;SDS011;53333;51.976;20.144;2023-09-30T05:26:03;13.57;;;10.70;;
36663;SDS011;53333;51.976;20.144;2023-09-30T05:31:11;15.48;;;11.32;;
36663;SDS011;53333;51.976;20.144;2023-09-30T05:33:44;15.02;;;10.93;;
36663;SDS011;53333;51.976;20.144;2023-09-30T05:36:17;18.48;;;11.07;;
36663;SDS011;53333;51.976;20.144;2023-09-30T05:38:51;16.73;;;12.10;;
36663;SDS011;53333;51.976;20.144;2023-09-30T05:41:24;15.45;;;12.10;;
36663;SDS011;53333;51.976;20.144;2023-09-30T05:46:32;17.60;;;13.00;;
36663;SDS011;53333;51.976;20.144;2023-09-30T05:49:05;14.70;;;11.75;;
36663;SDS011;53333;51.976;20.144;2023-09-30T05:51:41;20.90;;;12.00;;
36663;SDS011;53333;51.976;20.144;2023-09-30T05:54:14;16.00;;;12.65;;
36663;SDS011;53333;51.976;20.144;2023-09-30T05:56:47;15.07;;;12.13;;
36663;SDS011;53333;51.976;20.144;2023-09-30T05:59:22;24.73;;;14.30;;
36663;SDS011;53333;51.976;20.144;2023-09-30T06:01:57;32.67;;;25.05;;
36663;SDS011;53333;51.976;20.144;2023-09-30T06:04:29;25.65;;;19.23;;
36663;SDS011;53333;51.976;20.144;2023-09-30T06:07:05;22.75;;;14.80;;
36663;SDS011;53333;51.976;20.144;2023-09-30T06:09:38;21.30;;;14.52;;
36663;SDS011;53333;51.976;20.144;2023-09-30T06:12:11;19.33;;;13.35;;
36663;SDS011;53333;51.976;20.144;2023-09-30T06:14:45;25.63;;;20.67;;
36663;SDS011;53333;51.976;20.144;2023-09-30T06:17:18;16.90;;;13.02;;
36663;SDS011;53333;51.976;20.144;2023-09-30T06:19:52;16.88;;;13.07;;
36663;SDS011;53333;51.976;20.144;2023-09-30T06:22:26;17.05;;;13.00;;
36663;SDS011;53333;51.976;20.144;2023-09-30T06:25:00;23.50;;;13.63;;
36663;SDS011;53333;51.976;20.144;2023-09-30T06:27:33;16.42;;;13.95;;
36663;SDS011;53333;51.976;20.144;2023-09-30T06:30:08;16.23;;;13.43;;
36663;SDS011;53333;51.976;20.144;2023-09-30T06:32:42;58.70;;;38.63;;
36663;SDS011;53333;51.976;20.144;2023-09-30T06:35:16;19.15;;;14.50;;
36663;SDS011;53333;51.976;20.144;2023-09-30T06:37:53;19.40;;;13.13;;
36663;SDS011;53333;51.976;20.144;2023-09-30T06:40:26;17.08;;;12.95;;
36663;SDS011;53333;51.976;20.144;2023-09-30T06:42:59;17.67;;;12.80;;
36663;SDS011;53333;51.976;20.144;2023-09-30T06:45:34;17.05;;;12.48;;
36663;SDS011;53333;51.976;20.144;2023-09-30T06:48:16;17.17;;;12.45;;
36663;SDS011;53333;51.976;20.144;2023-09-30T06:50:49;15.88;;;12.07;;
36663;SDS011;53333;51.976;20.144;2023-09-30T06:53:24;15.60;;;12.05;;
36663;SDS011;53333;51.976;20.144;2023-09-30T06:55:57;19.90;;;12.85;;
36663;SDS011;53333;51.976;20.144;2023-09-30T06:58:30;17.80;;;12.52;;
36663;SDS011;53333;51.976;20.144;2023-09-30T07:01:04;16.60;;;12.82;;
36663;SDS011;53333;51.976;20.144;2023-09-30T07:03:38;18.48;;;12.43;;
36663;SDS011;53333;51.976;20.144;2023-09-30T07:06:11;18.92;;;14.88;;
36663;SDS011;53333;51.976;20.144;2023-09-30T07:08:44;19.30;;;14.60;;
36663;SDS011;53333;51.976;20.144;2023-09-30T07:11:17;20.38;;;13.63;;
36663;SDS011;53333;51.976;20.144;2023-09-30T07:13:58;35.00;;;21.90;;
36663;SDS011;53333;51.976;20.144;2023-09-30T07:16:33;18.95;;;14.25;;
36663;SDS011;53333;51.976;20.144;2023-09-30T07:19:06;24.00;;;15.30;;
36663;SDS011;53333;51.976;20.144;2023-09-30T07:21:39;22.10;;;16.17;;
36663;SDS011;53333;51.976;20.144;2023-09-30T07:24:12;22.83;;;18.23;;
36663;SDS011;53333;51.976;20.144;2023-09-30T07:26:46;22.45;;;16.13;;
36663;SDS011;53333;51.976;20.144;2023-09-30T07:29:19;20.98;;;15.48;;
36663;SDS011;53333;51.976;20.144;2023-09-30T07:31:53;19.55;;;16.48;;
36663;SDS011;53333;51.976;20.144;2023-09-30T07:34:26;25.30;;;16.35;;
36663;SDS011;53333;51.976;20.144;2023-09-30T07:36:59;33.30;;;18.08;;
36663;SDS011;53333;51.976;20.144;2023-09-30T07:39:32;22.10;;;17.98;;
36663;SDS011;53333;51.976;20.144;2023-09-30T07:42:08;26.05;;;16.25;;
36663;SDS011;53333;51.976;20.144;2023-09-30T07:44:41;30.42;;;18.05;;
36663;SDS011;53333;51.976;20.144;2023-09-30T07:47:15;32.38;;;20.75;;
36663;SDS011;53333;51.976;20.144;2023-09-30T07:49:48;23.98;;;16.55;;
36663;SDS011;53333;51.976;20.144;2023-09-30T07:52:21;26.02;;;16.48;;
36663;SDS011;53333;51.976;20.144;2023-09-30T07:54:54;26.23;;;16.88;;
36663;SDS011;53333;51.976;20.144;2023-09-30T07:57:27;27.77;;;17.73;;
36663;SDS011;53333;51.976;20.144;2023-09-30T08:00:00;27.13;;;17.77;;
36663;SDS011;53333;51.976;20.144;2023-09-30T08:02:41;24.42;;;16.13;;
36663;SDS011;53333;51.976;20.144;2023-09-30T08:05:14;21.70;;;16.33;;
36663;SDS011;53333;51.976;20.144;2023-09-30T08:07:47;22.58;;;17.75;;
36663;SDS011;53333;51.976;20.144;2023-09-30T08:10:20;24.05;;;16.13;;
36663;SDS011;53333;51.976;20.144;2023-09-30T08:12:53;22.50;;;17.23;;
36663;SDS011;53333;51.976;20.144;2023-09-30T08:15:28;20.55;;;17.30;;
36663;SDS011;53333;51.976;20.144;2023-09-30T08:18:04;24.33;;;17.40;;
36663;SDS011;53333;51.976;20.144;2023-09-30T08:20:40;25.42;;;17.15;;
36663;SDS011;53333;51.976;20.144;2023-09-30T08:23:13;26.00;;;17.27;;
36663;SDS011;53333;51.976;20.144;2023-09-30T08:25:46;24.52;;;17.13;;
36663;SDS011;53333;51.976;20.144;2023-09-30T08:28:19;23.08;;;16.45;;
36663;SDS011;53333;51.976;20.144;2023-09-30T08:30:52;25.75;;;17.80;;
36663;SDS011;53333;51.976;20.144;2023-09-30T08:33:30;24.67;;;16.70;;
36663;SDS011;53333;51.976;20.144;2023-09-30T08:36:03;20.80;;;15.48;;
36663;SDS011;53333;51.976;20.144;2023-09-30T08:38:39;24.38;;;15.63;;
36663;SDS011;53333;51.976;20.144;2023-09-30T08:41:15;23.17;;;17.05;;
36663;SDS011;53333;51.976;20.144;2023-09-30T08:43:59;21.27;;;15.45;;
36663;SDS011;53333;51.976;20.144;2023-09-30T08:46:33;21.25;;;13.88;;
36663;SDS011;53333;51.976;20.144;2023-09-30T08:49:09;18.42;;;12.80;;
36663;SDS011;53333;51.976;20.144;2023-09-30T08:51:45;23.00;;;15.43;;
36663;SDS011;53333;51.976;20.144;2023-09-30T08:54:22;21.80;;;12.90;;
36663;SDS011;53333;51.976;20.144;2023-09-30T08:56:55;23.63;;;13.23;;
36663;SDS011;53333;51.976;20.144;2023-09-30T08:59:28;17.20;;;12.02;;
36663;SDS011;53333;51.976;20.144;2023-09-30T09:02:02;16.65;;;11.00;;
36663;SDS011;53333;51.976;20.144;2023-09-30T09:04:36;14.07;;;9.15;;
36663;SDS011;53333;51.976;20.144;2023-09-30T09:07:09;14.70;;;8.68;;
36663;SDS011;53333;51.976;20.144;2023-09-30T09:09:43;16.17;;;9.20;;
36663;SDS011;53333;51.976;20.144;2023-09-30T09:12:36;11.70;;;6.72;;
36663;SDS011;53333;51.976;20.144;2023-09-30T09:15:19;10.32;;;6.55;;
36663;SDS011;53333;51.976;20.144;2023-09-30T09:20:29;9.40;;;5.80;;
36663;SDS011;53333;51.976;20.144;2023-09-30T09:23:02;11.27;;;5.97;;
36663;SDS011;53333;51.976;20.144;2023-09-30T09:25:39;10.40;;;5.72;;
36663;SDS011;53333;51.976;20.144;2023-09-30T09:28:12;9.93;;;5.45;;
36663;SDS011;53333;51.976;20.144;2023-09-30T09:30:47;10.25;;;7.00;;
36663;SDS011;53333;51.976;20.144;2023-09-30T09:33:22;10.27;;;4.75;;
36663;SDS011;53333;51.976;20.144;2023-09-30T09:35:56;11.35;;;4.22;;
36663;SDS011;53333;51.976;20.144;2023-09-30T09:38:35;14.43;;;8.55;;
36663;SDS011;53333;51.976;20.144;2023-09-30T09:41:16;6.32;;;3.00;;
36663;SDS011;53333;51.976;20.144;2023-09-30T09:43:49;4.60;;;2.00;;
36663;SDS011;53333;51.976;20.144;2023-09-30T09:46:23;5.60;;;2.55;;
36663;SDS011;53333;51.976;20.144;2023-09-30T09:48:57;8.13;;;2.92;;
36663;SDS011;53333;51.976;20.144;2023-09-30T09:51:32;5.90;;;2.90;;
36663;SDS011;53333;51.976;20.144;2023-09-30T09:54:05;16.63;;;9.82;;
36663;SDS011;53333;51.976;20.144;2023-09-30T09:56:39;5.15;;;2.50;;
36663;SDS011;53333;51.976;20.144;2023-09-30T09:59:12;6.47;;;2.53;;
36663;SDS011;53333;51.976;20.144;2023-09-30T10:01:45;7.70;;;2.95;;
36663;SDS011;53333;51.976;20.144;2023-09-30T10:04:25;7.90;;;2.70;;
36663;SDS011;53333;51.976;20.144;2023-09-30T10:06:59;6.85;;;2.65;;
36663;SDS011;53333;51.976;20.144;2023-09-30T10:09:35;7.38;;;2.58;;
36663;SDS011;53333;51.976;20.144;2023-09-30T10:12:08;7.10;;;2.47;;
36663;SDS011;53333;51.976;20.144;2023-09-30T10:14:46;4.53;;;2.50;;
36663;SDS011;53333;51.976;20.144;2023-09-30T10:17:20;7.88;;;2.97;;
36663;SDS011;53333;51.976;20.144;2023-09-30T10:20:05;8.98;;;2.60;;
36663;SDS011;53333;51.976;20.144;2023-09-30T10:22:40;10.48;;;2.63;;
36663;SDS011;53333;51.976;20.144;2023-09-30T10:25:34;6.18;;;2.85;;
36663;SDS011;53333;51.976;20.144;2023-09-30T10:31:13;8.48;;;2.80;;
36663;SDS011;53333;51.976;20.144;2023-09-30T10:36:53;8.00;;;3.17;;
36663;SDS011;53333;51.976;20.144;2023-09-30T10:42:45;8.23;;;2.80;;
36663;SDS011;53333;51.976;20.144;2023-09-30T10:48:32;7.72;;;3.22;;
36663;SDS011;53333;51.976;20.144;2023-09-30T10:51:10;5.72;;;2.58;;
36663;SDS011;53333;51.976;20.144;2023-09-30T10:53:48;7.90;;;2.72;;
36663;SDS011;53333;51.976;20.144;2023-09-30T10:56:26;8.13;;;2.88;;
36663;SDS011;53333;51.976;20.144;2023-09-30T10:59:04;7.45;;;2.92;;
36663;SDS011;53333;51.976;20.144;2023-09-30T11:01:37;7.00;;;2.80;;
36663;SDS011;53333;51.976;20.144;2023-09-30T11:04:11;7.63;;;3.10;;
36663;SDS011;53333;51.976;20.144;2023-09-30T11:06:44;8.52;;;2.67;;
36663;SDS011;53333;51.976;20.144;2023-09-30T11:09:19;8.50;;;3.00;;
36663;SDS011;53333;51.976;20.144;2023-09-30T11:11:54;10.95;;;2.90;;
36663;SDS011;53333;51.976;20.144;2023-09-30T11:14:27;8.32;;;3.13;;
36663;SDS011;53333;51.976;20.144;2023-09-30T11:17:02;9.57;;;3.13;;
36663;SDS011;53333;51.976;20.144;2023-09-30T11:19:36;11.35;;;3.28;;
36663;SDS011;53333;51.976;20.144;2023-09-30T11:22:18;11.15;;;3.15;;
36663;SDS011;53333;51.976;20.144;2023-09-30T11:24:51;10.27;;;5.20;;
36663;SDS011;53333;51.976;20.144;2023-09-30T11:30:01;9.00;;;3.30;;
36663;SDS011;53333;51.976;20.144;2023-09-30T11:32:35;7.68;;;2.90;;
36663;SDS011;53333;51.976;20.144;2023-09-30T11:35:21;7.65;;;2.72;;
36663;SDS011;53333;51.976;20.144;2023-09-30T11:37:55;8.00;;;2.90;;
36663;SDS011;53333;51.976;20.144;2023-09-30T11:40:28;5.78;;;2.60;;
36663;SDS011;53333;51.976;20.144;2023-09-30T11:43:08;8.98;;;2.80;;
36663;SDS011;53333;51.976;20.144;2023-09-30T11:45:44;8.02;;;2.60;;
36663;SDS011;53333;51.976;20.144;2023-09-30T11:48:18;11.35;;;3.20;;
36663;SDS011;53333;51.976;20.144;2023-09-30T11:50:51;7.65;;;2.83;;
36663;SDS011;53333;51.976;20.144;2023-09-30T11:53:26;7.30;;;2.78;;
36663;SDS011;53333;51.976;20.144;2023-09-30T11:56:01;8.68;;;2.60;;
36663;SDS011;53333;51.976;20.144;2023-09-30T11:58:36;14.38;;;2.95;;
36663;SDS011;53333;51.976;20.144;2023-09-30T12:01:10;7.15;;;2.80;;
36663;SDS011;53333;51.976;20.144;2023-09-30T12:03:45;6.32;;;2.65;;
36663;SDS011;53333;51.976;20.144;2023-09-30T12:06:19;5.85;;;2.80;;
36663;SDS011;53333;51.976;20.144;2023-09-30T12:08:52;8.20;;;3.25;;
36663;SDS011;53333;51.976;20.144;2023-09-30T12:11:25;12.30;;;3.58;;
36663;SDS011;53333;51.976;20.144;2023-09-30T12:14:02;5.22;;;2.47;;
36663;SDS011;53333;51.976;20.144;2023-09-30T12:16:35;7.32;;;3.33;;
36663;SDS011;53333;51.976;20.144;2023-09-30T12:19:09;5.35;;;2.28;;
36663;SDS011;53333;51.976;20.144;2023-09-30T12:21:42;4.65;;;2.25;;
36663;SDS011;53333;51.976;20.144;2023-09-30T12:24:15;7.22;;;2.22;;
36663;SDS011;53333;51.976;20.144;2023-09-30T12:26:53;6.18;;;2.03;;
36663;SDS011;53333;51.976;20.144;2023-09-30T12:29:28;7.70;;;2.35;;
36663;SDS011;53333;51.976;20.144;2023-09-30T12:32:01;9.48;;;2.45;;
36663;SDS011;53333;51.976;20.144;2023-09-30T12:34:35;8.32;;;2.67;;
36663;SDS011;53333;51.976;20.144;2023-09-30T12:37:08;6.70;;;3.20;;
36663;SDS011;53333;51.976;20.144;2023-09-30T12:39:42;8.27;;;2.60;;
36663;SDS011;53333;51.976;20.144;2023-09-30T12:42:16;11.73;;;3.00;;
36663;SDS011;53333;51.976;20.144;2023-09-30T12:44:51;6.88;;;2.97;;
36663;SDS011;53333;51.976;20.144;2023-09-30T12:47:23;8.77;;;2.92;;
36663;SDS011;53333;51.976;20.144;2023-09-30T12:49:56;7.18;;;2.35;;
36663;SDS011;53333;51.976;20.144;2023-09-30T12:52:30;7.18;;;2.65;;
36663;SDS011;53333;51.976;20.144;2023-09-30T12:55:04;10.23;;;2.80;;
36663;SDS011;53333;51.976;20.144;2023-09-30T12:57:38;9.82;;;2.83;;
36663;SDS011;53333;51.976;20.144;2023-09-30T13:00:13;8.25;;;2.92;;
36663;SDS011;53333;51.976;20.144;2023-09-30T13:02:47;9.35;;;2.63;;
36663;SDS011;53333;51.976;20.144;2023-09-30T13:05:20;6.15;;;2.33;;
36663;SDS011;53333;51.976;20.144;2023-09-30T13:07:53;6.93;;;3.00;;
36663;SDS011;53333;51.976;20.144;2023-09-30T13:10:26;6.95;;;2.45;;
36663;SDS011;53333;51.976;20.144;2023-09-30T13:13:01;9.38;;;4.07;;
36663;SDS011;53333;51.976;20.144;2023-09-30T13:15:35;7.95;;;2.83;;
36663;SDS011;53333;51.976;20.144;2023-09-30T13:18:09;10.75;;;3.17;;
36663;SDS011;53333;51.976;20.144;2023-09-30T13:20:42;8.25;;;2.40;;
36663;SDS011;53333;51.976;20.144;2023-09-30T13:23:14;12.45;;;2.95;;
36663;SDS011;53333;51.976;20.144;2023-09-30T13:25:51;7.57;;;2.78;;
36663;SDS011;53333;51.976;20.144;2023-09-30T13:28:24;15.10;;;8.70;;
36663;SDS011;53333;51.976;20.144;2023-09-30T13:31:00;12.48;;;2.83;;
36663;SDS011;53333;51.976;20.144;2023-09-30T13:33:33;10.57;;;3.00;;
36663;SDS011;53333;51.976;20.144;2023-09-30T13:36:06;11.20;;;3.05;;
36663;SDS011;53333;51.976;20.144;2023-09-30T13:38:39;11.73;;;2.92;;
36663;SDS011;53333;51.976;20.144;2023-09-30T13:41:12;9.23;;;2.75;;
36663;SDS011;53333;51.976;20.144;2023-09-30T13:46:19;9.38;;;3.22;;
36663;SDS011;53333;51.976;20.144;2023-09-30T13:48:56;13.32;;;3.10;;
36663;SDS011;53333;51.976;20.144;2023-09-30T13:51:29;9.00;;;3.20;;
36663;SDS011;53333;51.976;20.144;2023-09-30T13:56:35;9.80;;;2.85;;
36663;SDS011;53333;51.976;20.144;2023-09-30T13:59:09;11.40;;;4.15;;
36663;SDS011;53333;51.976;20.144;2023-09-30T14:01:44;18.65;;;9.27;;
36663;SDS011;53333;51.976;20.144;2023-09-30T14:04:17;10.02;;;3.08;;
36663;SDS011;53333;51.976;20.144;2023-09-30T14:06:50;11.07;;;2.63;;
36663;SDS011;53333;51.976;20.144;2023-09-30T14:12:08;11.90;;;3.20;;
36663;SDS011;53333;51.976;20.144;2023-09-30T14:14:41;12.52;;;3.63;;
36663;SDS011;53333;51.976;20.144;2023-09-30T14:17:15;9.25;;;3.05;;
36663;SDS011;53333;51.976;20.144;2023-09-30T14:19:48;13.23;;;3.20;;
36663;SDS011;53333;51.976;20.144;2023-09-30T14:22:21;11.50;;;3.53;;
36663;SDS011;53333;51.976;20.144;2023-09-30T14:24:54;10.25;;;3.10;;
36663;SDS011;53333;51.976;20.144;2023-09-30T14:27:27;9.57;;;3.03;;
36663;SDS011;53333;51.976;20.144;2023-09-30T14:30:01;13.23;;;4.22;;
36663;SDS011;53333;51.976;20.144;2023-09-30T14:32:40;8.80;;;3.10;;
36663;SDS011;53333;51.976;20.144;2023-09-30T14:35:13;8.00;;;3.17;;
36663;SDS011;53333;51.976;20.144;2023-09-30T14:37:47;11.00;;;4.05;;
36663;SDS011;53333;51.976;20.144;2023-09-30T14:40:20;12.07;;;3.85;;
36663;SDS011;53333;51.976;20.144;2023-09-30T14:42:53;9.32;;;3.33;;
36663;SDS011;53333;51.976;20.144;2023-09-30T14:45:26;10.73;;;3.28;;
36663;SDS011;53333;51.976;20.144;2023-09-30T14:48:00;11.13;;;3.35;;
36663;SDS011;53333;51.976;20.144;2023-09-30T14:50:33;30.33;;;19.20;;
36663;SDS011;53333;51.976;20.144;2023-09-30T14:53:08;11.45;;;4.00;;
36663;SDS011;53333;51.976;20.144;2023-09-30T14:55:41;13.35;;;3.72;;
36663;SDS011;53333;51.976;20.144;2023-09-30T14:58:13;8.88;;;3.35;;
36663;SDS011;53333;51.976;20.144;2023-09-30T15:00:47;10.38;;;3.45;;
36663;SDS011;53333;51.976;20.144;2023-09-30T15:03:21;10.93;;;3.85;;
36663;SDS011;53333;51.976;20.144;2023-09-30T15:05:58;9.35;;;4.20;;
36663;SDS011;53333;51.976;20.144;2023-09-30T15:08:33;10.90;;;3.75;;
36663;SDS011;53333;51.976;20.144;2023-09-30T15:11:10;10.82;;;3.25;;
36663;SDS011;53333;51.976;20.144;2023-09-30T15:13:46;12.10;;;3.53;;
36663;SDS011;53333;51.976;20.144;2023-09-30T15:16:20;9.52;;;3.72;;
36663;SDS011;53333;51.976;20.144;2023-09-30T15:18:58;12.45;;;3.65;;
36663;SDS011;53333;51.976;20.144;2023-09-30T15:21:31;12.80;;;3.40;;
36663;SDS011;53333;51.976;20.144;2023-09-30T15:24:05;6.47;;;3.22;;
36663;SDS011;53333;51.976;20.144;2023-09-30T15:26:38;12.68;;;3.85;;
36663;SDS011;53333;51.976;20.144;2023-09-30T15:29:11;10.00;;;3.35;;
36663;SDS011;53333;51.976;20.144;2023-09-30T15:31:44;12.73;;;3.58;;
36663;SDS011;53333;51.976;20.144;2023-09-30T15:34:18;10.10;;;3.67;;
36663;SDS011;53333;51.976;20.144;2023-09-30T15:36:51;7.65;;;3.10;;
36663;SDS011;53333;51.976;20.144;2023-09-30T15:39:24;9.70;;;3.85;;
36663;SDS011;53333;51.976;20.144;2023-09-30T15:41:57;12.75;;;3.85;;
36663;SDS011;53333;51.976;20.144;2023-09-30T15:44:30;15.00;;;4.60;;
36663;SDS011;53333;51.976;20.144;2023-09-30T15:47:05;12.80;;;4.40;;